createdAt,value
2016-06-12T00:00:29.576Z,24.77
2016-06-12T00:01:29.564Z,24.77
2016-06-12T00:02:29.598Z,24.75
2016-06-12T00:03:29.601Z,24.75
2016-06-12T00:04:29.495Z,24.82
2016-06-12T00:05:29.982Z,24.8
2016-06-12T00:06:29.627Z,24.77
2016-06-12T00:07:29.645Z,24.77
2016-06-12T00:08:29.658Z,24.78
2016-06-12T00:09:29.715Z,24.8
2016-06-12T00:10:29.756Z,24.77
2016-06-12T00:11:29.813Z,24.82
2016-06-12T00:12:29.854Z,24.77
2016-06-12T00:13:29.879Z,24.78
2016-06-12T00:14:29.895Z,24.77
2016-06-12T00:15:29.928Z,24.77
2016-06-12T00:16:29.944Z,24.75
2016-06-12T00:17:29.961Z,24.77
2016-06-12T00:18:29.972Z,24.77
2016-06-12T00:19:30.465Z,24.82
2016-06-12T00:20:30.426Z,24.85
2016-06-12T00:21:30.028Z,24.83
2016-06-12T00:22:30.020Z,24.77
2016-06-12T00:23:30.057Z,24.85
2016-06-12T00:24:30.047Z,24.82
2016-06-12T00:25:30.067Z,24.78
2016-06-12T00:26:30.088Z,24.78
2016-06-12T00:27:30.093Z,24.75
2016-06-12T00:28:30.081Z,24.77
2016-06-12T00:29:29.945Z,24.77
2016-06-12T00:30:30.104Z,24.83
2016-06-12T00:31:30.967Z,24.8
2016-06-12T00:32:30.111Z,24.77
2016-06-12T00:33:30.131Z,24.8
2016-06-12T00:34:30.384Z,24.77
2016-06-12T00:35:30.793Z,24.8
2016-06-12T00:36:30.156Z,24.75
2016-06-12T00:37:30.159Z,24.67
2016-06-12T00:38:30.162Z,24.69
2016-06-12T00:39:30.166Z,24.77
2016-06-12T00:40:30.184Z,24.75
2016-06-12T00:41:30.184Z,24.66
2016-06-12T00:42:30.188Z,24.74
2016-06-12T00:43:30.190Z,24.77
2016-06-12T00:44:30.194Z,24.75
2016-06-12T00:45:30.212Z,24.77
2016-06-12T00:46:30.215Z,24.75
2016-06-12T00:47:30.234Z,24.7
2016-06-12T00:48:30.284Z,24.71
2016-06-12T00:49:30.256Z,24.74
2016-06-12T00:50:31.590Z,24.66
2016-06-12T00:51:30.262Z,24.66
2016-06-12T00:52:30.250Z,24.77
2016-06-12T00:53:30.268Z,24.77
2016-06-12T00:54:30.303Z,24.74
2016-06-12T00:55:30.290Z,24.69
2016-06-12T00:56:30.308Z,24.71
2016-06-12T00:57:30.312Z,24.75
2016-06-12T00:58:30.315Z,24.75
2016-06-12T00:59:30.334Z,24.66
2016-06-12T01:00:30.321Z,24.75
2016-06-12T01:01:30.340Z,24.74
2016-06-12T01:02:30.343Z,24.8
2016-06-12T01:03:30.346Z,24.74
2016-06-12T01:04:30.381Z,24.75
2016-06-12T01:05:30.367Z,24.74
2016-06-12T01:06:30.355Z,24.67
2016-06-12T01:07:30.373Z,24.67
2016-06-12T01:08:30.393Z,24.8
2016-06-12T01:09:30.379Z,24.82
2016-06-12T01:10:30.399Z,24.75
2016-06-12T01:11:30.402Z,24.74
2016-06-12T01:12:30.419Z,24.74
2016-06-12T01:13:30.423Z,24.71
2016-06-12T01:14:30.426Z,24.71
2016-06-12T01:15:30.445Z,24.71
2016-06-12T01:16:30.449Z,24.74
2016-06-12T01:17:30.451Z,24.7
2016-06-12T01:18:30.455Z,24.71
2016-06-12T01:19:30.457Z,24.71
2016-06-12T01:20:30.648Z,24.74
2016-06-12T01:21:30.322Z,24.74
2016-06-12T01:22:30.482Z,24.69
2016-06-12T01:23:30.501Z,24.75
2016-06-12T01:24:30.504Z,24.7
2016-06-12T01:25:30.507Z,24.66
2016-06-12T01:26:30.526Z,24.63
2016-06-12T01:27:30.513Z,24.71
2016-06-12T01:28:30.532Z,24.74
2016-06-12T01:29:30.535Z,24.77
2016-06-12T01:30:30.397Z,24.7
2016-06-12T01:31:30.558Z,24.67
2016-06-12T01:32:30.560Z,24.75
2016-06-12T01:33:30.563Z,24.7
2016-06-12T01:34:30.567Z,24.7
2016-06-12T01:35:30.804Z,24.67
2016-06-12T01:36:30.588Z,24.75
2016-06-12T01:37:30.607Z,24.7
2016-06-12T01:38:30.594Z,24.74
2016-06-12T01:39:30.613Z,24.74
2016-06-12T01:40:30.616Z,24.71
2016-06-12T01:41:30.620Z,24.71
2016-06-12T01:42:30.637Z,24.71
2016-06-12T01:43:30.640Z,24.74
2016-06-12T01:44:30.487Z,24.78
2016-06-12T01:45:30.647Z,24.67
2016-06-12T01:46:30.666Z,24.71
2016-06-12T01:47:30.684Z,24.78
2016-06-12T01:48:30.735Z,24.74
2016-06-12T01:49:30.691Z,24.77
2016-06-12T01:50:30.694Z,24.74
2016-06-12T01:51:30.697Z,24.7
2016-06-12T01:52:30.700Z,24.71
2016-06-12T01:53:30.734Z,24.7
2016-06-12T01:54:30.721Z,24.7
2016-06-12T01:55:30.741Z,24.71
2016-06-12T01:56:30.727Z,24.71
2016-06-12T01:57:30.746Z,24.69
2016-06-12T01:58:30.750Z,24.74
2016-06-12T01:59:30.752Z,24.78
2016-06-12T02:00:30.772Z,24.74
2016-06-12T02:01:30.775Z,24.66
2016-06-12T02:02:30.778Z,24.7
2016-06-12T02:03:30.781Z,24.69
2016-06-12T02:04:30.799Z,24.69
2016-06-12T02:05:30.818Z,24.7
2016-06-12T02:06:30.790Z,24.74
2016-06-12T02:07:30.808Z,24.75
2016-06-12T02:08:30.827Z,24.71
2016-06-12T02:09:30.831Z,24.69
2016-06-12T02:10:30.834Z,24.7
2016-06-12T02:11:30.837Z,24.67
2016-06-12T02:12:30.871Z,24.75
2016-06-12T02:13:30.858Z,24.75
2016-06-12T02:14:30.877Z,24.69
2016-06-12T02:15:30.864Z,24.78
2016-06-12T02:16:30.883Z,24.75
2016-06-12T02:17:30.886Z,24.7
2016-06-12T02:18:30.889Z,24.66
2016-06-12T02:19:30.892Z,24.67
2016-06-12T02:20:30.926Z,24.66
2016-06-12T02:21:30.757Z,24.63
2016-06-12T02:22:30.949Z,24.77
2016-06-12T02:23:30.951Z,24.75
2016-06-12T02:24:31.110Z,24.77
2016-06-12T02:25:30.941Z,24.77
2016-06-12T02:26:30.945Z,24.69
2016-06-12T02:27:30.964Z,24.69
2016-06-12T02:28:30.982Z,24.66
2016-06-12T02:29:31.001Z,24.75
2016-06-12T02:30:30.989Z,24.64
2016-06-12T02:31:30.992Z,24.64
2016-06-12T02:32:30.979Z,24.75
2016-06-12T02:33:31.030Z,24.75
2016-06-12T02:34:31.016Z,24.69
2016-06-12T02:35:31.644Z,24.64
2016-06-12T02:36:31.022Z,24.7
2016-06-12T02:37:31.025Z,24.66
2016-06-12T02:38:31.029Z,24.67
2016-06-12T02:39:31.048Z,24.64
2016-06-12T02:40:31.051Z,24.67
2016-06-12T02:41:31.053Z,24.64
2016-06-12T02:42:31.072Z,24.63
2016-06-12T02:43:30.919Z,24.64
2016-06-12T02:44:31.078Z,24.66
2016-06-12T02:45:31.081Z,24.66
2016-06-12T02:46:31.100Z,24.59
2016-06-12T02:47:31.103Z,24.74
2016-06-12T02:48:31.012Z,24.59
2016-06-12T02:49:31.125Z,24.64
2016-06-12T02:50:31.003Z,24.66
2016-06-12T02:51:31.131Z,24.59
2016-06-12T02:52:31.135Z,24.66
2016-06-12T02:53:31.152Z,24.61
2016-06-12T02:54:31.155Z,24.61
2016-06-12T02:55:31.175Z,24.66
2016-06-12T02:56:31.162Z,24.63
2016-06-12T02:57:31.180Z,24.64
2016-06-12T02:58:31.184Z,24.55
2016-06-12T02:59:31.187Z,24.69
2016-06-12T03:00:31.049Z,24.66
2016-06-12T03:01:31.209Z,24.63
2016-06-12T03:02:31.227Z,24.63
2016-06-12T03:03:31.215Z,24.64
2016-06-12T03:04:31.218Z,24.63
2016-06-12T03:05:31.706Z,24.59
2016-06-12T03:06:31.239Z,24.58
2016-06-12T03:07:31.242Z,24.64
2016-06-12T03:08:31.262Z,24.64
2016-06-12T03:09:31.265Z,24.61
2016-06-12T03:10:31.267Z,24.64
2016-06-12T03:11:31.271Z,24.63
2016-06-12T03:12:31.289Z,24.7
2016-06-12T03:13:31.292Z,24.59
2016-06-12T03:14:31.311Z,24.63
2016-06-12T03:15:31.314Z,24.64
2016-06-12T03:16:31.318Z,24.67
2016-06-12T03:17:31.320Z,24.59
2016-06-12T03:18:31.339Z,24.66
2016-06-12T03:19:31.357Z,24.59
2016-06-12T03:20:31.345Z,24.63
2016-06-12T03:21:31.380Z,24.56
2016-06-12T03:22:31.366Z,24.59
2016-06-12T03:23:31.369Z,24.59
2016-06-12T03:24:31.373Z,24.56
2016-06-12T03:25:31.392Z,24.61
2016-06-12T03:26:31.239Z,24.59
2016-06-12T03:27:31.398Z,24.61
2016-06-12T03:28:31.401Z,24.61
2016-06-12T03:29:31.435Z,24.64
2016-06-12T03:30:31.424Z,24.61
2016-06-12T03:31:31.426Z,24.59
2016-06-12T03:32:31.272Z,24.63
2016-06-12T03:33:31.448Z,24.63
2016-06-12T03:34:31.436Z,24.58
2016-06-12T03:35:31.485Z,24.64
2016-06-12T03:36:31.550Z,24.56
2016-06-12T03:37:31.476Z,24.59
2016-06-12T03:38:31.479Z,24.63
2016-06-12T03:39:31.482Z,24.63
2016-06-12T03:40:31.500Z,24.64
2016-06-12T03:41:31.488Z,24.69
2016-06-12T03:42:31.507Z,24.61
2016-06-12T03:43:31.509Z,24.64
2016-06-12T03:44:31.512Z,24.59
2016-06-12T03:45:31.531Z,24.69
2016-06-12T03:46:31.518Z,24.59
2016-06-12T03:47:31.554Z,24.64
2016-06-12T03:48:31.541Z,24.61
2016-06-12T03:49:31.559Z,24.55
2016-06-12T03:50:32.016Z,24.67
2016-06-12T03:51:31.581Z,24.61
2016-06-12T03:52:31.584Z,24.59
2016-06-12T03:53:31.587Z,24.61
2016-06-12T03:54:31.606Z,24.63
2016-06-12T03:55:31.594Z,24.56
2016-06-12T03:56:31.596Z,24.63
2016-06-12T03:57:31.615Z,24.67
2016-06-12T03:58:31.618Z,24.58
2016-06-12T03:59:31.637Z,24.61
2016-06-12T04:00:31.641Z,24.66
2016-06-12T04:01:31.644Z,24.63
2016-06-12T04:02:31.489Z,24.7
2016-06-12T04:03:31.664Z,24.61
2016-06-12T04:04:31.653Z,24.66
2016-06-12T04:05:31.671Z,24.58
2016-06-12T04:06:32.159Z,24.61
2016-06-12T04:07:31.693Z,24.69
2016-06-12T04:08:31.696Z,24.61
2016-06-12T04:09:31.699Z,24.63
2016-06-12T04:10:31.717Z,24.61
2016-06-12T04:11:31.720Z,24.66
2016-06-12T04:12:31.739Z,24.69
2016-06-12T04:13:31.726Z,24.61
2016-06-12T04:14:31.574Z,24.64
2016-06-12T04:15:31.748Z,24.61
2016-06-12T04:16:31.752Z,24.59
2016-06-12T04:17:31.755Z,24.69
2016-06-12T04:18:31.617Z,24.66
2016-06-12T04:19:31.776Z,24.69
2016-06-12T04:20:31.780Z,24.63
2016-06-12T04:21:32.798Z,24.66
2016-06-12T04:22:31.786Z,24.59
2016-06-12T04:23:31.804Z,24.74
2016-06-12T04:24:31.823Z,24.58
2016-06-12T04:25:31.811Z,24.67
2016-06-12T04:26:31.829Z,24.71
2016-06-12T04:27:31.832Z,24.67
2016-06-12T04:28:31.835Z,24.7
2016-06-12T04:29:31.839Z,24.77
2016-06-12T04:30:31.842Z,24.75
2016-06-12T04:31:31.861Z,24.77
2016-06-12T04:32:31.863Z,24.71
2016-06-12T04:33:31.882Z,24.78
2016-06-12T04:34:31.885Z,24.75
2016-06-12T04:35:32.060Z,24.71
2016-06-12T04:36:32.735Z,24.74
2016-06-12T04:37:31.925Z,24.7
2016-06-12T04:38:31.914Z,24.7
2016-06-12T04:39:31.916Z,24.69
2016-06-12T04:40:31.794Z,24.78
2016-06-12T04:41:31.954Z,24.74
2016-06-12T04:42:31.941Z,24.8
2016-06-12T04:43:31.944Z,24.71
2016-06-12T04:44:31.963Z,24.7
2016-06-12T04:45:31.950Z,24.74
2016-06-12T04:46:31.969Z,24.74
2016-06-12T04:47:31.988Z,24.75
2016-06-12T04:48:31.991Z,24.69
2016-06-12T04:49:31.994Z,24.8
2016-06-12T04:50:31.997Z,24.74
2016-06-12T04:51:31.843Z,24.78
2016-06-12T04:52:32.035Z,24.74
2016-06-12T04:53:32.021Z,24.75
2016-06-12T04:54:32.024Z,24.77
2016-06-12T04:55:32.028Z,24.75
2016-06-12T04:56:32.047Z,24.67
2016-06-12T04:57:32.049Z,24.66
2016-06-12T04:58:32.069Z,24.82
2016-06-12T04:59:32.072Z,24.7
2016-06-12T05:00:32.075Z,24.78
2016-06-12T05:01:32.078Z,24.8
2016-06-12T05:02:32.081Z,24.75
2016-06-12T05:03:32.099Z,24.75
2016-06-12T05:04:32.102Z,24.71
2016-06-12T05:05:32.121Z,24.77
2016-06-12T05:06:32.640Z,24.66
2016-06-12T05:07:32.128Z,24.78
2016-06-12T05:08:32.130Z,24.77
2016-06-12T05:09:32.148Z,24.69
2016-06-12T05:10:32.168Z,24.8
2016-06-12T05:11:32.155Z,24.69
2016-06-12T05:12:32.157Z,24.7
2016-06-12T05:13:32.177Z,24.78
2016-06-12T05:14:32.180Z,24.69
2016-06-12T05:15:32.183Z,24.82
2016-06-12T05:16:32.202Z,24.82
2016-06-12T05:17:32.205Z,24.8
2016-06-12T05:18:32.692Z,24.82
2016-06-12T05:19:32.227Z,24.82
2016-06-12T05:20:32.214Z,24.77
2016-06-12T05:21:33.092Z,24.78
2016-06-12T05:22:32.236Z,24.8
2016-06-12T05:23:32.239Z,24.82
2016-06-12T05:24:32.257Z,24.78
2016-06-12T05:25:32.261Z,24.83
2016-06-12T05:26:32.263Z,24.78
2016-06-12T05:27:32.267Z,24.75
2016-06-12T05:28:32.270Z,24.77
2016-06-12T05:29:32.289Z,24.77
2016-06-12T05:30:32.135Z,24.82
2016-06-12T05:31:32.296Z,24.8
2016-06-12T05:32:32.313Z,24.8
2016-06-12T05:33:32.317Z,24.83
2016-06-12T05:34:32.319Z,24.8
2016-06-12T05:35:32.323Z,24.78
2016-06-12T05:36:32.185Z,24.77
2016-06-12T05:37:32.345Z,24.82
2016-06-12T05:38:32.363Z,24.83
2016-06-12T05:39:32.366Z,24.77
2016-06-12T05:40:32.369Z,24.78
2016-06-12T05:41:32.388Z,24.74
2016-06-12T05:42:32.391Z,24.8
2016-06-12T05:43:32.394Z,24.8
2016-06-12T05:44:32.413Z,24.83
2016-06-12T05:45:32.416Z,24.85
2016-06-12T05:46:32.403Z,24.75
2016-06-12T05:47:32.422Z,24.89
2016-06-12T05:48:32.425Z,24.85
2016-06-12T05:49:32.428Z,24.92
2016-06-12T05:50:32.431Z,24.82
2016-06-12T05:51:32.700Z,24.87
2016-06-12T05:52:32.453Z,24.86
2016-06-12T05:53:32.456Z,24.89
2016-06-12T05:54:32.475Z,24.9
2016-06-12T05:55:32.478Z,24.87
2016-06-12T05:56:32.481Z,24.9
2016-06-12T05:57:32.328Z,24.94
2016-06-12T05:58:32.519Z,24.92
2016-06-12T05:59:32.506Z,24.96
2016-06-12T06:00:32.509Z,24.9
2016-06-12T06:01:32.356Z,24.89
2016-06-12T06:02:32.530Z,24.92
2016-06-12T06:03:32.534Z,24.96
2016-06-12T06:04:32.536Z,24.93
2016-06-12T06:05:32.571Z,24.94
2016-06-12T06:06:32.652Z,24.89
2016-06-12T06:07:32.562Z,24.92
2016-06-12T06:08:32.565Z,25.02
2016-06-12T06:09:32.583Z,24.96
2016-06-12T06:10:32.586Z,24.93
2016-06-12T06:11:32.605Z,25.04
2016-06-12T06:12:32.608Z,24.94
2016-06-12T06:13:32.611Z,24.92
2016-06-12T06:14:32.614Z,24.94
2016-06-12T06:15:32.634Z,24.92
2016-06-12T06:16:32.636Z,25.02
2016-06-12T06:17:32.654Z,25.02
2016-06-12T06:18:32.658Z,24.92
2016-06-12T06:19:32.677Z,24.92
2016-06-12T06:20:32.664Z,25
2016-06-12T06:21:32.682Z,25.02
2016-06-12T06:22:32.670Z,24.97
2016-06-12T06:23:32.673Z,24.93
2016-06-12T06:24:32.692Z,24.94
2016-06-12T06:25:32.695Z,24.97
2016-06-12T06:26:32.715Z,24.93
2016-06-12T06:27:32.717Z,24.93
2016-06-12T06:28:32.720Z,24.96
2016-06-12T06:29:32.724Z,24.93
2016-06-12T06:30:32.742Z,25.04
2016-06-12T06:31:32.745Z,24.96
2016-06-12T06:32:32.747Z,24.96
2016-06-12T06:33:32.767Z,25.02
2016-06-12T06:34:32.770Z,24.9
2016-06-12T06:35:32.772Z,25.02
2016-06-12T06:36:32.838Z,24.92
2016-06-12T06:37:32.794Z,24.93
2016-06-12T06:38:32.626Z,24.9
2016-06-12T06:39:32.816Z,25.04
2016-06-12T06:40:32.820Z,24.97
2016-06-12T06:41:32.823Z,25.01
2016-06-12T06:42:32.825Z,24.94
2016-06-12T06:43:32.829Z,25
2016-06-12T06:44:32.847Z,25.04
2016-06-12T06:45:32.851Z,25
2016-06-12T06:46:32.854Z,24.96
2016-06-12T06:47:32.872Z,24.93
2016-06-12T06:48:32.875Z,25.01
2016-06-12T06:49:32.924Z,24.93
2016-06-12T06:50:32.881Z,24.92
2016-06-12T06:51:32.759Z,24.96
2016-06-12T06:52:32.903Z,24.96
2016-06-12T06:53:32.968Z,25.01
2016-06-12T06:54:32.940Z,24.97
2016-06-12T06:55:32.928Z,24.97
2016-06-12T06:56:32.931Z,24.96
2016-06-12T06:57:32.935Z,24.96
2016-06-12T06:58:32.938Z,25
2016-06-12T06:59:32.955Z,24.97
2016-06-12T07:00:32.959Z,24.9
2016-06-12T07:01:32.978Z,25.01
2016-06-12T07:02:32.981Z,25.01
2016-06-12T07:03:33.328Z,25.01
2016-06-12T07:04:32.987Z,25
2016-06-12T07:05:32.990Z,24.96
2016-06-12T07:06:33.040Z,25.02
2016-06-12T07:07:33.012Z,25.04
2016-06-12T07:08:33.015Z,25.02
2016-06-12T07:09:33.018Z,25.05
2016-06-12T07:10:33.036Z,25.02
2016-06-12T07:11:33.040Z,25.04
2016-06-12T07:12:33.059Z,25.05
2016-06-12T07:13:33.077Z,25.02
2016-06-12T07:14:33.079Z,25.02
2016-06-12T07:15:33.068Z,25.05
2016-06-12T07:16:33.071Z,25.08
2016-06-12T07:17:33.089Z,25.05
2016-06-12T07:18:33.092Z,25.08
2016-06-12T07:19:33.111Z,25.01
2016-06-12T07:20:33.114Z,25.08
2016-06-12T07:21:33.054Z,25.05
2016-06-12T07:22:33.136Z,25.01
2016-06-12T07:23:32.983Z,25.14
2016-06-12T07:24:33.127Z,25.08
2016-06-12T07:25:33.145Z,25.14
2016-06-12T07:26:33.164Z,25.02
2016-06-12T07:27:33.151Z,25.07
2016-06-12T07:28:33.169Z,25.01
2016-06-12T07:29:33.173Z,25.07
2016-06-12T07:30:33.192Z,25
2016-06-12T07:31:33.195Z,25.11
2016-06-12T07:32:33.198Z,25.07
2016-06-12T07:33:33.201Z,25.05
2016-06-12T07:34:33.219Z,25.04
2016-06-12T07:35:33.222Z,25.11
2016-06-12T07:36:33.538Z,25.01
2016-06-12T07:37:33.291Z,25.02
2016-06-12T07:38:33.248Z,25.07
2016-06-12T07:39:33.251Z,25.04
2016-06-12T07:40:33.129Z,25.07
2016-06-12T07:41:33.257Z,25.07
2016-06-12T07:42:33.119Z,25.04
2016-06-12T07:43:33.122Z,25.14
2016-06-12T07:44:33.297Z,25.07
2016-06-12T07:45:33.300Z,25.04
2016-06-12T07:46:33.303Z,25.09
2016-06-12T07:47:33.322Z,25.09
2016-06-12T07:48:33.309Z,25.08
2016-06-12T07:49:33.390Z,25.11
2016-06-12T07:50:33.347Z,25.09
2016-06-12T07:51:33.334Z,25.14
2016-06-12T07:52:33.978Z,25.11
2016-06-12T07:53:33.357Z,25.17
2016-06-12T07:54:33.375Z,25.07
2016-06-12T07:55:33.378Z,25.17
2016-06-12T07:56:33.381Z,25.2
2016-06-12T07:57:33.384Z,25.11
2016-06-12T07:58:33.387Z,25.11
2016-06-12T07:59:33.390Z,25.15
2016-06-12T08:00:33.424Z,25.17
2016-06-12T08:01:33.427Z,25.19
2016-06-12T08:02:33.431Z,25.17
2016-06-12T08:03:33.433Z,25.15
2016-06-12T08:04:33.437Z,25.22
2016-06-12T08:05:33.439Z,25.15
2016-06-12T08:06:34.583Z,25.12
2016-06-12T08:07:33.478Z,25.19
2016-06-12T08:08:33.464Z,25.15
2016-06-12T08:09:33.640Z,25.14
2016-06-12T08:10:33.487Z,25.17
2016-06-12T08:11:33.490Z,25.19
2016-06-12T08:12:33.493Z,25.2
2016-06-12T08:13:33.511Z,25.15
2016-06-12T08:14:33.358Z,25.12
2016-06-12T08:15:33.517Z,25.19
2016-06-12T08:16:33.536Z,25.22
2016-06-12T08:17:33.539Z,25.22
2016-06-12T08:18:33.542Z,25.23
2016-06-12T08:19:33.546Z,25.14
2016-06-12T08:20:33.564Z,25.15
2016-06-12T08:21:34.271Z,25.14
2016-06-12T08:22:33.914Z,25.19
2016-06-12T08:23:33.589Z,25.17
2016-06-12T08:24:33.592Z,25.15
2016-06-12T08:25:33.595Z,25.15
2016-06-12T08:26:33.599Z,25.19
2016-06-12T08:27:33.617Z,25.22
2016-06-12T08:28:33.464Z,25.15
2016-06-12T08:29:33.624Z,25.2
2016-06-12T08:30:33.641Z,25.14
2016-06-12T08:31:33.661Z,25.17
2016-06-12T08:32:33.647Z,25.17
2016-06-12T08:33:33.650Z,25.19
2016-06-12T08:34:33.904Z,25.19
2016-06-12T08:35:33.938Z,25.2
2016-06-12T08:36:33.973Z,25.23
2016-06-12T08:37:34.304Z,25.22
2016-06-12T08:38:34.588Z,25.15
2016-06-12T08:39:34.419Z,25.23
2016-06-12T08:40:34.719Z,25.17
2016-06-12T08:41:34.535Z,25.29
2016-06-12T08:42:34.476Z,25.26
2016-06-12T08:43:34.386Z,25.17
2016-06-12T08:44:34.934Z,25.27
2016-06-12T08:45:33.751Z,25.22
2016-06-12T08:46:33.769Z,25.27
2016-06-12T08:47:33.756Z,25.27
2016-06-12T08:48:33.776Z,25.29
2016-06-12T08:49:33.872Z,25.27
2016-06-12T08:50:33.797Z,25.23
2016-06-12T08:51:33.785Z,25.29
2016-06-12T08:52:33.819Z,25.29
2016-06-12T08:53:33.822Z,25.26
2016-06-12T08:54:33.826Z,25.26
2016-06-12T08:55:33.813Z,25.22
2016-06-12T08:56:33.831Z,25.12
2016-06-12T08:57:33.835Z,25.22
2016-06-12T08:58:33.853Z,25.19
2016-06-12T08:59:33.872Z,25.2
2016-06-12T09:00:33.890Z,25.27
2016-06-12T09:01:33.862Z,25.29
2016-06-12T09:02:33.881Z,25.23
2016-06-12T09:03:33.884Z,25.26
2016-06-12T09:04:33.887Z,25.3
2016-06-12T09:05:33.937Z,25.23
2016-06-12T09:06:33.909Z,25.23
2016-06-12T09:07:34.005Z,25.29
2016-06-12T09:08:33.931Z,25.23
2016-06-12T09:09:33.933Z,25.26
2016-06-12T09:10:33.937Z,25.27
2016-06-12T09:11:33.940Z,25.26
2016-06-12T09:12:33.958Z,25.24
2016-06-12T09:13:33.961Z,25.32
2016-06-12T09:14:33.966Z,25.26
2016-06-12T09:15:34.025Z,25.26
2016-06-12T09:16:34.397Z,25.29
2016-06-12T09:17:34.316Z,25.22
2016-06-12T09:18:34.750Z,25.29
2016-06-12T09:19:35.168Z,25.26
2016-06-12T09:20:34.233Z,25.26
2016-06-12T09:21:34.250Z,25.23
2016-06-12T09:22:34.706Z,25.32
2016-06-12T09:23:34.286Z,25.29
2016-06-12T09:24:34.319Z,25.26
2016-06-12T09:25:34.327Z,25.32
2016-06-12T09:26:34.350Z,25.38
2016-06-12T09:27:34.358Z,25.3
2016-06-12T09:28:34.367Z,25.27
2016-06-12T09:29:34.391Z,25.32
2016-06-12T09:30:34.396Z,25.22
2016-06-12T09:31:34.400Z,25.29
2016-06-12T09:32:34.437Z,25.3
2016-06-12T09:33:34.410Z,25.3
2016-06-12T09:34:34.431Z,25.32
2016-06-12T09:35:34.435Z,25.23
2016-06-12T09:36:34.454Z,25.33
2016-06-12T09:37:34.474Z,25.34
2016-06-12T09:38:34.461Z,25.27
2016-06-12T09:39:34.919Z,25.27
2016-06-12T09:40:34.485Z,25.3
2016-06-12T09:41:34.488Z,25.3
2016-06-12T09:42:34.492Z,25.24
2016-06-12T09:43:34.511Z,25.32
2016-06-12T09:44:34.530Z,25.33
2016-06-12T09:45:34.518Z,25.3
2016-06-12T09:46:34.521Z,25.32
2016-06-12T09:47:34.539Z,25.27
2016-06-12T09:48:34.542Z,25.32
2016-06-12T09:49:35.092Z,25.3
2016-06-12T09:50:34.564Z,25.34
2016-06-12T09:51:34.568Z,25.33
2016-06-12T09:52:34.648Z,25.33
2016-06-12T09:53:34.588Z,25.34
2016-06-12T09:54:34.436Z,25.33
2016-06-12T09:55:34.611Z,25.3
2016-06-12T09:56:34.629Z,25.26
2016-06-12T09:57:34.616Z,25.24
2016-06-12T09:58:34.683Z,25.32
2016-06-12T09:59:34.998Z,25.22
2016-06-12T10:00:34.642Z,25.3
2016-06-12T10:01:34.660Z,25.33
2016-06-12T10:02:34.648Z,25.37
2016-06-12T10:03:34.666Z,25.32
2016-06-12T10:04:34.669Z,25.29
2016-06-12T10:05:59.864Z,25.3
2016-06-12T10:06:34.676Z,25.32
2016-06-12T10:07:35.288Z,25.32
2016-06-12T10:08:34.713Z,25.33
2016-06-12T10:09:34.717Z,25.3
2016-06-12T10:10:34.720Z,25.34
2016-06-12T10:11:34.722Z,25.33
2016-06-12T10:12:34.804Z,25.37
2016-06-12T10:13:34.729Z,25.3
2016-06-12T10:14:35.169Z,25.33
2016-06-12T10:15:34.781Z,25.32
2016-06-12T10:16:34.753Z,25.3
2016-06-12T10:17:34.772Z,25.38
2016-06-12T10:18:34.775Z,25.41
2016-06-12T10:19:34.794Z,25.39
2016-06-12T10:20:34.781Z,25.34
2016-06-12T10:21:34.799Z,25.34
2016-06-12T10:22:35.319Z,25.38
2016-06-12T10:23:34.806Z,25.33
2016-06-12T10:24:34.809Z,25.33
2016-06-12T10:25:34.828Z,25.32
2016-06-12T10:26:34.831Z,25.33
2016-06-12T10:27:34.834Z,25.32
2016-06-12T10:28:34.853Z,25.34
2016-06-12T10:29:34.856Z,25.34
2016-06-12T10:30:41.452Z,25.37
2016-06-12T10:31:34.878Z,25.32
2016-06-12T10:32:34.881Z,25.38
2016-06-12T10:33:34.947Z,25.29
2016-06-12T10:34:34.886Z,25.38
2016-06-12T10:35:34.906Z,25.37
2016-06-12T10:36:34.925Z,25.32
2016-06-12T10:37:36.443Z,25.39
2016-06-12T10:38:34.774Z,25.34
2016-06-12T10:39:34.777Z,25.3
2016-06-12T10:40:34.937Z,25.3
2016-06-12T10:41:34.940Z,25.37
2016-06-12T10:42:34.958Z,25.37
2016-06-12T10:43:34.961Z,25.33
2016-06-12T10:44:34.964Z,25.33
2016-06-12T10:45:34.967Z,25.34
2016-06-12T10:46:34.986Z,25.34
2016-06-12T10:47:34.848Z,25.32
2016-06-12T10:48:35.008Z,25.3
2016-06-12T10:49:35.011Z,25.3
2016-06-12T10:50:35.013Z,25.27
2016-06-12T10:51:35.017Z,25.37
2016-06-12T10:52:35.052Z,25.32
2016-06-12T10:53:35.038Z,25.33
2016-06-12T10:54:35.058Z,25.3
2016-06-12T10:55:35.045Z,25.32
2016-06-12T10:56:35.079Z,25.34
2016-06-12T10:57:35.067Z,25.3
2016-06-12T10:58:35.071Z,25.3
2016-06-12T10:59:35.088Z,25.34
2016-06-12T11:00:35.091Z,25.32
2016-06-12T11:01:35.532Z,25.3
2016-06-12T11:02:35.114Z,25.29
2016-06-12T11:03:35.117Z,25.3
2016-06-12T11:04:35.119Z,25.34
2016-06-12T11:05:35.123Z,25.3
2016-06-12T11:06:35.142Z,25.32
2016-06-12T11:07:36.253Z,25.33
2016-06-12T11:08:36.898Z,25.32
2016-06-12T11:09:36.197Z,25.27
2016-06-12T11:10:35.966Z,25.37
2016-06-12T11:11:35.969Z,25.33
2016-06-12T11:12:35.972Z,25.38
2016-06-12T11:13:35.944Z,25.34
2016-06-12T11:14:35.917Z,25.33
2016-06-12T11:15:35.935Z,25.29
2016-06-12T11:16:36.235Z,25.34
2016-06-12T11:17:35.847Z,25.34
2016-06-12T11:18:35.224Z,25.38
2016-06-12T11:19:35.244Z,25.33
2016-06-12T11:20:35.247Z,25.41
2016-06-12T11:21:35.250Z,25.33
2016-06-12T11:22:35.269Z,25.33
2016-06-12T11:23:35.756Z,25.34
2016-06-12T11:24:35.290Z,25.34
2016-06-12T11:25:35.293Z,25.34
2016-06-12T11:26:35.296Z,25.38
2016-06-12T11:27:35.127Z,25.3
2016-06-12T11:28:35.302Z,25.38
2016-06-12T11:29:35.306Z,25.38
2016-06-12T11:30:35.308Z,25.37
2016-06-12T11:31:35.327Z,25.33
2016-06-12T11:32:35.347Z,25.38
2016-06-12T11:33:35.350Z,25.37
2016-06-12T11:34:35.353Z,25.37
2016-06-12T11:35:35.371Z,25.34
2016-06-12T11:36:35.374Z,25.39
2016-06-12T11:37:35.784Z,25.41
2016-06-12T11:38:36.162Z,25.38
2016-06-12T11:39:35.400Z,25.34
2016-06-12T11:40:35.403Z,25.39
2016-06-12T11:41:35.405Z,25.42
2016-06-12T11:42:35.423Z,25.44
2016-06-12T11:43:35.426Z,25.37
2016-06-12T11:44:35.445Z,25.38
2016-06-12T11:45:35.433Z,25.37
2016-06-12T11:46:35.561Z,25.33
2016-06-12T11:47:35.455Z,25.33
2016-06-12T11:48:35.458Z,25.34
2016-06-12T11:49:35.477Z,25.41
2016-06-12T11:50:35.480Z,25.39
2016-06-12T11:51:35.498Z,25.41
2016-06-12T11:52:35.501Z,25.37
2016-06-12T11:53:35.521Z,25.34
2016-06-12T11:54:35.507Z,25.39
2016-06-12T11:55:35.511Z,25.37
2016-06-12T11:56:35.530Z,25.33
2016-06-12T11:57:35.516Z,25.39
2016-06-12T11:58:35.519Z,25.42
2016-06-12T11:59:35.539Z,25.34
2016-06-12T12:00:35.542Z,25.34
2016-06-12T12:01:35.545Z,25.44
2016-06-12T12:02:35.579Z,25.42
2016-06-12T12:03:35.582Z,25.37
2016-06-12T12:04:35.429Z,25.32
2016-06-12T12:05:35.604Z,25.37
2016-06-12T12:06:35.591Z,25.45
2016-06-12T12:07:36.172Z,25.44
2016-06-12T12:08:36.378Z,25.42
2016-06-12T12:09:35.631Z,25.42
2016-06-12T12:10:35.635Z,25.44
2016-06-12T12:11:35.637Z,25.37
2016-06-12T12:12:35.640Z,25.33
2016-06-12T12:13:35.660Z,25.44
2016-06-12T12:14:35.663Z,25.32
2016-06-12T12:15:35.666Z,25.45
2016-06-12T12:16:35.670Z,25.41
2016-06-12T12:17:35.688Z,25.34
2016-06-12T12:18:35.691Z,25.37
2016-06-12T12:19:35.710Z,25.32
2016-06-12T12:20:35.713Z,25.33
2016-06-12T12:21:35.716Z,25.44
2016-06-12T12:22:35.579Z,25.47
2016-06-12T12:23:36.207Z,25.39
2016-06-12T12:24:35.740Z,25.34
2016-06-12T12:25:35.744Z,25.37
2016-06-12T12:26:35.747Z,25.33
2016-06-12T12:27:35.749Z,25.37
2016-06-12T12:28:35.784Z,25.41
2016-06-12T12:29:35.772Z,25.44
2016-06-12T12:30:35.775Z,25.37
2016-06-12T12:31:35.794Z,25.41
2016-06-12T12:32:35.812Z,25.37
2016-06-12T12:33:35.800Z,25.39
2016-06-12T12:34:35.819Z,25.38
2016-06-12T12:35:35.821Z,25.42
2016-06-12T12:36:35.824Z,25.37
2016-06-12T12:37:36.889Z,25.44
2016-06-12T12:38:35.908Z,25.42
2016-06-12T12:39:35.849Z,25.38
2016-06-12T12:40:35.852Z,25.44
2016-06-12T12:41:35.870Z,25.42
2016-06-12T12:42:35.874Z,25.41
2016-06-12T12:43:35.893Z,25.42
2016-06-12T12:44:35.897Z,25.42
2016-06-12T12:45:35.899Z,25.49
2016-06-12T12:46:35.902Z,25.38
2016-06-12T12:47:35.920Z,25.33
2016-06-12T12:48:35.923Z,25.44
2016-06-12T12:49:35.927Z,25.49
2016-06-12T12:50:35.946Z,25.44
2016-06-12T12:51:35.933Z,25.33
2016-06-12T12:52:35.968Z,25.37
2016-06-12T12:53:36.455Z,25.45
2016-06-12T12:54:35.958Z,25.47
2016-06-12T12:55:35.977Z,25.49